Weerstation Zoersel Live Webcam Weerstation Zoersel Live Webcam


sateliet wolkenradar  


Doneren

CBI


onweer radar meer informatie blitzortung!


regen radar  rain snow radar


Enkele sfeerfotootjes...  

Het weer levert geen direct gevaar op.    Er zijn geen waarschuwingen afgegeven.

metar rapporten vliegvelden

   
EBAW - Antwerp
gewijzigd: 15-12-2019 11:50
licht bewolkt  
licht bewolkt  
   wind: zw 27,8 km/h
wind: zw 27,8 km/h
temperatuur: 9°C
voelt als: 6°C
dauwpunt: 4°C
vochtigheid: 71%
barometer: 1000 hPa
bewolking: licht bewolkt
zicht: meer dan 10 km
bewolking: licht bewolkt 3000 ft
EBAW 151050Z 23015KT 190V250 9999 FEW030 09/04 Q1000 TEMPO 22015G25KT
EBLG - Li├Ęge
gewijzigd: 15-12-2019 11:50
helder  
helder  
   wind: zw 29,6 km/h
wind: zw 29,6 km/h
temperatuur: 7°C
voelt als: 3°C
dauwpunt: 3°C
vochtigheid: 76%
barometer: 1002 hPa
zicht: meer dan 10 km
bewolking: helder
EBLG 151050Z 23016KT CAVOK 07/03 Q1002 NOSIG
EBCV - Mons/Bergen
gewijzigd: 15-12-2019 11:55
helder  
helder  
   wind: zw 31,5 km/h
wind: zw 31,5 km/h
temperatuur: 8°C
voelt als: 4°C
dauwpunt: 4°C
vochtigheid: 76%
barometer: 1006 hPa
bewolking: helder
zicht: meer dan 10 km
bewolking: helder
EBCV 151055Z AUTO 22017KT 9999 NCD 08/04 Q1006 BLU
EHBK - Maastricht
gewijzigd: 15-12-2019 11:55
gedeeltelijk bewolkt  
gedeeltelijk bewolkt  
   wind: zw 33,3 km/h
wind: zw 33,3 km/h
temperatuur: 8°C
voelt als: 4°C
dauwpunt: 4°C
vochtigheid: 76%
barometer: 1001 hPa
bewolking: gedeeltelijk bewolkt
zicht: meer dan 10 km
bewolking: gedeeltelijk bewolkt
EHBK 151055Z AUTO 22018KT 9999 NSC 08/04 Q1001 NOSIG
ELLX - Luxemburg
gewijzigd: 15-12-2019 11:50
gedeeltelijk bewolkt  
gedeeltelijk bewolkt  
   wind: wzw 25,9 km/h
wind: wzw 25,9 km/h
temperatuur: 8°C
voelt als: 4°C
dauwpunt: 4°C
vochtigheid: 76%
barometer: 1004 hPa
bewolking: gedeeltelijk bewolkt
zicht: meer dan 10 km
bewolking: licht bewolkt 1500 ft,
gedeeltelijk bewolkt 4200 ft
ELLX 151050Z 25014KT 9999 FEW015 SCT042 08/04 Q1004 NOSIG
EBOS - Oostende
gewijzigd: 15-12-2019 11:50
licht bewolkt  
licht bewolkt  
   wind: zw 29,6 km/h
wind: zw 29,6 km/h
temperatuur: 8°C
voelt als: 4°C
dauwpunt: 5°C
vochtigheid: 82%
barometer: 999 hPa
bewolking: licht bewolkt
zicht: meer dan 10 km
bewolking: licht bewolkt 2000 ft
EBOS 151050Z 23016KT 9999 FEW020 08/05 Q0999 NOSIG

script ontwikkeld door  Saratoga-weather.org aangepast voor de template door  Weerstation Leuven